sensor_id;sensor_type;location;lat;lon;timestamp;P1;durP1;ratioP1;P2;durP2;ratioP2
4144;SDS011;2086;51.050;6.982;2022-08-14T00:00:58;2.90;;;2.70;;
4144;SDS011;2086;51.050;6.982;2022-08-14T00:03:24;2.90;;;2.73;;
4144;SDS011;2086;51.050;6.982;2022-08-14T00:05:50;2.80;;;2.60;;
4144;SDS011;2086;51.050;6.982;2022-08-14T00:08:16;2.73;;;2.63;;
4144;SDS011;2086;51.050;6.982;2022-08-14T00:10:42;4.80;;;3.00;;
4144;SDS011;2086;51.050;6.982;2022-08-14T00:13:07;2.53;;;2.40;;
4144;SDS011;2086;51.050;6.982;2022-08-14T00:15:34;3.97;;;2.93;;
4144;SDS011;2086;51.050;6.982;2022-08-14T00:18:01;3.30;;;3.10;;
4144;SDS011;2086;51.050;6.982;2022-08-14T00:20:31;3.03;;;2.83;;
4144;SDS011;2086;51.050;6.982;2022-08-14T00:22:59;3.90;;;3.20;;
4144;SDS011;2086;51.050;6.982;2022-08-14T00:25:25;3.20;;;3.00;;
4144;SDS011;2086;51.050;6.982;2022-08-14T00:27:51;3.40;;;2.80;;
4144;SDS011;2086;51.050;6.982;2022-08-14T00:30:16;3.20;;;2.90;;
4144;SDS011;2086;51.050;6.982;2022-08-14T00:32:42;3.10;;;2.90;;
4144;SDS011;2086;51.050;6.982;2022-08-14T00:35:08;3.53;;;3.30;;
4144;SDS011;2086;51.050;6.982;2022-08-14T00:37:33;3.23;;;3.13;;
4144;SDS011;2086;51.050;6.982;2022-08-14T00:39:59;3.23;;;2.90;;
4144;SDS011;2086;51.050;6.982;2022-08-14T00:42:24;5.63;;;4.23;;
4144;SDS011;2086;51.050;6.982;2022-08-14T00:44:50;3.53;;;3.33;;
4144;SDS011;2086;51.050;6.982;2022-08-14T00:47:16;2.77;;;2.57;;
4144;SDS011;2086;51.050;6.982;2022-08-14T00:49:42;3.97;;;2.70;;
4144;SDS011;2086;51.050;6.982;2022-08-14T00:52:07;4.50;;;4.10;;
4144;SDS011;2086;51.050;6.982;2022-08-14T00:54:33;3.47;;;3.20;;
4144;SDS011;2086;51.050;6.982;2022-08-14T00:57:01;3.20;;;3.00;;
4144;SDS011;2086;51.050;6.982;2022-08-14T00:59:26;2.67;;;2.57;;
4144;SDS011;2086;51.050;6.982;2022-08-14T01:01:55;3.30;;;3.20;;
4144;SDS011;2086;51.050;6.982;2022-08-14T01:04:22;2.80;;;2.70;;
4144;SDS011;2086;51.050;6.982;2022-08-14T01:06:48;6.07;;;2.73;;
4144;SDS011;2086;51.050;6.982;2022-08-14T01:09:14;5.80;;;3.97;;
4144;SDS011;2086;51.050;6.982;2022-08-14T01:11:40;3.57;;;3.37;;
4144;SDS011;2086;51.050;6.982;2022-08-14T01:14:05;2.97;;;2.77;;
4144;SDS011;2086;51.050;6.982;2022-08-14T01:16:30;5.33;;;4.83;;
4144;SDS011;2086;51.050;6.982;2022-08-14T01:18:55;3.93;;;3.63;;
4144;SDS011;2086;51.050;6.982;2022-08-14T01:21:39;3.33;;;3.03;;
4144;SDS011;2086;51.050;6.982;2022-08-14T01:24:06;3.50;;;3.20;;
4144;SDS011;2086;51.050;6.982;2022-08-14T01:26:32;3.87;;;3.50;;
4144;SDS011;2086;51.050;6.982;2022-08-14T01:28:58;3.83;;;3.53;;
4144;SDS011;2086;51.050;6.982;2022-08-14T01:31:25;4.07;;;3.70;;
4144;SDS011;2086;51.050;6.982;2022-08-14T01:33:51;3.43;;;3.27;;
4144;SDS011;2086;51.050;6.982;2022-08-14T01:36:18;2.90;;;2.70;;
4144;SDS011;2086;51.050;6.982;2022-08-14T01:38:46;4.17;;;3.87;;
4144;SDS011;2086;51.050;6.982;2022-08-14T01:41:15;3.30;;;3.13;;
4144;SDS011;2086;51.050;6.982;2022-08-14T01:46:09;3.17;;;3.07;;
4144;SDS011;2086;51.050;6.982;2022-08-14T01:48:36;4.00;;;3.70;;
4144;SDS011;2086;51.050;6.982;2022-08-14T01:51:01;7.73;;;4.20;;
4144;SDS011;2086;51.050;6.982;2022-08-14T01:53:27;3.90;;;3.70;;
4144;SDS011;2086;51.050;6.982;2022-08-14T01:55:54;3.40;;;3.30;;
4144;SDS011;2086;51.050;6.982;2022-08-14T01:58:22;3.70;;;3.50;;
4144;SDS011;2086;51.050;6.982;2022-08-14T02:00:49;5.00;;;3.40;;
4144;SDS011;2086;51.050;6.982;2022-08-14T02:03:18;4.53;;;3.83;;
4144;SDS011;2086;51.050;6.982;2022-08-14T02:05:43;3.37;;;3.10;;
4144;SDS011;2086;51.050;6.982;2022-08-14T02:08:08;4.03;;;3.80;;
4144;SDS011;2086;51.050;6.982;2022-08-14T02:10:34;3.27;;;3.17;;
4144;SDS011;2086;51.050;6.982;2022-08-14T02:13:00;3.90;;;3.70;;
4144;SDS011;2086;51.050;6.982;2022-08-14T02:15:32;5.13;;;3.73;;
4144;SDS011;2086;51.050;6.982;2022-08-14T02:17:57;4.37;;;4.07;;
4144;SDS011;2086;51.050;6.982;2022-08-14T02:20:25;3.50;;;3.30;;
4144;SDS011;2086;51.050;6.982;2022-08-14T02:22:50;4.67;;;4.37;;
4144;SDS011;2086;51.050;6.982;2022-08-14T02:25:17;3.97;;;3.77;;
4144;SDS011;2086;51.050;6.982;2022-08-14T02:27:44;3.70;;;3.50;;
4144;SDS011;2086;51.050;6.982;2022-08-14T02:30:10;4.13;;;3.83;;
4144;SDS011;2086;51.050;6.982;2022-08-14T02:32:35;3.83;;;3.63;;
4144;SDS011;2086;51.050;6.982;2022-08-14T02:35:01;9.70;;;4.40;;
4144;SDS011;2086;51.050;6.982;2022-08-14T02:37:30;3.50;;;3.20;;
4144;SDS011;2086;51.050;6.982;2022-08-14T02:39:56;4.33;;;4.03;;
4144;SDS011;2086;51.050;6.982;2022-08-14T02:42:22;4.37;;;4.17;;
4144;SDS011;2086;51.050;6.982;2022-08-14T02:44:48;4.60;;;3.90;;
4144;SDS011;2086;51.050;6.982;2022-08-14T02:47:14;3.83;;;3.63;;
4144;SDS011;2086;51.050;6.982;2022-08-14T02:49:39;3.70;;;3.30;;
4144;SDS011;2086;51.050;6.982;2022-08-14T02:52:05;4.10;;;3.80;;
4144;SDS011;2086;51.050;6.982;2022-08-14T02:54:31;4.60;;;4.40;;
4144;SDS011;2086;51.050;6.982;2022-08-14T02:56:58;3.90;;;3.77;;
4144;SDS011;2086;51.050;6.982;2022-08-14T02:59:24;4.43;;;3.80;;
4144;SDS011;2086;51.050;6.982;2022-08-14T03:01:52;14.60;;;4.00;;
4144;SDS011;2086;51.050;6.982;2022-08-14T03:04:18;4.27;;;3.97;;
4144;SDS011;2086;51.050;6.982;2022-08-14T03:06:43;4.20;;;3.90;;
4144;SDS011;2086;51.050;6.982;2022-08-14T03:09:10;3.70;;;3.40;;
4144;SDS011;2086;51.050;6.982;2022-08-14T03:11:35;3.77;;;3.57;;
4144;SDS011;2086;51.050;6.982;2022-08-14T03:14:01;3.80;;;3.60;;
4144;SDS011;2086;51.050;6.982;2022-08-14T03:16:26;3.93;;;3.73;;
4144;SDS011;2086;51.050;6.982;2022-08-14T03:18:52;3.47;;;3.27;;
4144;SDS011;2086;51.050;6.982;2022-08-14T03:21:19;4.57;;;4.13;;
4144;SDS011;2086;51.050;6.982;2022-08-14T03:23:46;5.47;;;3.83;;
4144;SDS011;2086;51.050;6.982;2022-08-14T03:26:12;3.63;;;3.33;;
4144;SDS011;2086;51.050;6.982;2022-08-14T03:28:40;5.30;;;3.70;;
4144;SDS011;2086;51.050;6.982;2022-08-14T03:31:06;4.03;;;3.80;;
4144;SDS011;2086;51.050;6.982;2022-08-14T03:33:31;4.97;;;3.47;;
4144;SDS011;2086;51.050;6.982;2022-08-14T03:35:57;3.77;;;3.57;;
4144;SDS011;2086;51.050;6.982;2022-08-14T03:38:23;4.30;;;4.00;;
4144;SDS011;2086;51.050;6.982;2022-08-14T03:40:49;3.90;;;3.80;;
4144;SDS011;2086;51.050;6.982;2022-08-14T03:43:14;3.87;;;3.57;;
4144;SDS011;2086;51.050;6.982;2022-08-14T03:45:40;5.80;;;5.40;;
4144;SDS011;2086;51.050;6.982;2022-08-14T03:48:15;5.07;;;4.53;;
4144;SDS011;2086;51.050;6.982;2022-08-14T03:50:44;4.00;;;3.80;;
4144;SDS011;2086;51.050;6.982;2022-08-14T03:53:10;4.00;;;3.80;;
4144;SDS011;2086;51.050;6.982;2022-08-14T03:55:37;4.50;;;4.13;;
4144;SDS011;2086;51.050;6.982;2022-08-14T03:58:03;4.07;;;3.87;;
4144;SDS011;2086;51.050;6.982;2022-08-14T04:00:29;5.73;;;4.00;;
4144;SDS011;2086;51.050;6.982;2022-08-14T04:02:54;6.13;;;3.80;;
4144;SDS011;2086;51.050;6.982;2022-08-14T04:05:19;4.80;;;4.40;;
4144;SDS011;2086;51.050;6.982;2022-08-14T04:07:45;4.93;;;4.50;;
4144;SDS011;2086;51.050;6.982;2022-08-14T04:10:10;3.50;;;3.23;;
4144;SDS011;2086;51.050;6.982;2022-08-14T04:12:36;4.37;;;4.13;;
4144;SDS011;2086;51.050;6.982;2022-08-14T04:15:01;4.30;;;4.00;;
4144;SDS011;2086;51.050;6.982;2022-08-14T04:17:26;4.37;;;4.07;;
4144;SDS011;2086;51.050;6.982;2022-08-14T04:19:53;5.10;;;4.60;;
4144;SDS011;2086;51.050;6.982;2022-08-14T04:22:18;6.40;;;4.43;;
4144;SDS011;2086;51.050;6.982;2022-08-14T04:24:44;4.30;;;3.90;;
4144;SDS011;2086;51.050;6.982;2022-08-14T04:27:09;4.77;;;4.33;;
4144;SDS011;2086;51.050;6.982;2022-08-14T04:29:44;5.10;;;4.70;;
4144;SDS011;2086;51.050;6.982;2022-08-14T04:32:09;4.10;;;3.80;;
4144;SDS011;2086;51.050;6.982;2022-08-14T04:34:35;4.50;;;4.20;;
4144;SDS011;2086;51.050;6.982;2022-08-14T04:37:03;5.47;;;5.07;;
4144;SDS011;2086;51.050;6.982;2022-08-14T04:39:47;3.80;;;3.50;;
4144;SDS011;2086;51.050;6.982;2022-08-14T04:42:31;6.10;;;5.13;;
4144;SDS011;2086;51.050;6.982;2022-08-14T04:45:15;4.20;;;4.00;;
4144;SDS011;2086;51.050;6.982;2022-08-14T04:47:42;4.80;;;4.30;;
4144;SDS011;2086;51.050;6.982;2022-08-14T04:50:26;5.40;;;4.73;;
4144;SDS011;2086;51.050;6.982;2022-08-14T04:52:51;4.40;;;4.20;;
4144;SDS011;2086;51.050;6.982;2022-08-14T04:55:16;6.00;;;4.70;;
4144;SDS011;2086;51.050;6.982;2022-08-14T04:57:42;4.70;;;4.40;;
4144;SDS011;2086;51.050;6.982;2022-08-14T05:00:07;4.33;;;4.13;;
4144;SDS011;2086;51.050;6.982;2022-08-14T05:02:33;5.47;;;4.97;;
4144;SDS011;2086;51.050;6.982;2022-08-14T05:04:59;4.57;;;4.30;;
4144;SDS011;2086;51.050;6.982;2022-08-14T05:07:24;5.37;;;4.97;;
4144;SDS011;2086;51.050;6.982;2022-08-14T05:09:49;5.60;;;5.00;;
4144;SDS011;2086;51.050;6.982;2022-08-14T05:12:15;7.33;;;5.03;;
4144;SDS011;2086;51.050;6.982;2022-08-14T05:14:40;4.00;;;3.67;;
4144;SDS011;2086;51.050;6.982;2022-08-14T05:17:06;5.43;;;5.03;;
4144;SDS011;2086;51.050;6.982;2022-08-14T05:19:31;6.53;;;4.50;;
4144;SDS011;2086;51.050;6.982;2022-08-14T05:21:56;6.30;;;5.10;;
4144;SDS011;2086;51.050;6.982;2022-08-14T05:24:22;5.23;;;4.83;;
4144;SDS011;2086;51.050;6.982;2022-08-14T05:26:47;4.10;;;3.90;;
4144;SDS011;2086;51.050;6.982;2022-08-14T05:29:13;6.73;;;5.23;;
4144;SDS011;2086;51.050;6.982;2022-08-14T05:31:38;4.87;;;4.50;;
4144;SDS011;2086;51.050;6.982;2022-08-14T05:34:05;4.43;;;4.00;;
4144;SDS011;2086;51.050;6.982;2022-08-14T05:36:30;4.40;;;4.10;;
4144;SDS011;2086;51.050;6.982;2022-08-14T05:38:57;5.50;;;5.03;;
4144;SDS011;2086;51.050;6.982;2022-08-14T05:41:22;5.17;;;4.67;;
4144;SDS011;2086;51.050;6.982;2022-08-14T05:43:48;4.23;;;4.03;;
4144;SDS011;2086;51.050;6.982;2022-08-14T05:46:15;5.23;;;4.73;;
4144;SDS011;2086;51.050;6.982;2022-08-14T05:48:53;5.03;;;4.00;;
4144;SDS011;2086;51.050;6.982;2022-08-14T05:51:19;5.67;;;5.00;;
4144;SDS011;2086;51.050;6.982;2022-08-14T05:53:45;4.80;;;4.40;;
4144;SDS011;2086;51.050;6.982;2022-08-14T05:56:10;5.40;;;4.90;;
4144;SDS011;2086;51.050;6.982;2022-08-14T05:58:36;4.27;;;4.03;;
4144;SDS011;2086;51.050;6.982;2022-08-14T06:01:01;4.70;;;4.37;;
4144;SDS011;2086;51.050;6.982;2022-08-14T06:03:27;4.93;;;4.63;;
4144;SDS011;2086;51.050;6.982;2022-08-14T06:05:52;4.63;;;4.23;;
4144;SDS011;2086;51.050;6.982;2022-08-14T06:08:20;4.27;;;3.97;;
4144;SDS011;2086;51.050;6.982;2022-08-14T06:10:46;4.70;;;3.67;;
4144;SDS011;2086;51.050;6.982;2022-08-14T06:13:11;6.33;;;4.50;;
4144;SDS011;2086;51.050;6.982;2022-08-14T06:15:36;4.77;;;4.37;;
4144;SDS011;2086;51.050;6.982;2022-08-14T06:18:02;4.37;;;4.00;;
4144;SDS011;2086;51.050;6.982;2022-08-14T06:20:27;4.37;;;4.17;;
4144;SDS011;2086;51.050;6.982;2022-08-14T06:22:53;4.97;;;4.57;;
4144;SDS011;2086;51.050;6.982;2022-08-14T06:25:18;4.83;;;4.53;;
4144;SDS011;2086;51.050;6.982;2022-08-14T06:27:46;10.70;;;4.03;;
4144;SDS011;2086;51.050;6.982;2022-08-14T06:30:12;4.30;;;4.00;;
4144;SDS011;2086;51.050;6.982;2022-08-14T06:32:38;5.00;;;4.00;;
4144;SDS011;2086;51.050;6.982;2022-08-14T06:35:03;4.10;;;3.80;;
4144;SDS011;2086;51.050;6.982;2022-08-14T06:40:11;5.13;;;4.73;;
4144;SDS011;2086;51.050;6.982;2022-08-14T06:42:37;5.23;;;4.83;;
4144;SDS011;2086;51.050;6.982;2022-08-14T06:45:02;5.77;;;5.17;;
4144;SDS011;2086;51.050;6.982;2022-08-14T06:47:28;4.37;;;4.03;;
4144;SDS011;2086;51.050;6.982;2022-08-14T06:49:53;4.37;;;4.07;;
4144;SDS011;2086;51.050;6.982;2022-08-14T06:52:18;4.93;;;4.60;;
4144;SDS011;2086;51.050;6.982;2022-08-14T06:54:44;4.60;;;4.23;;
4144;SDS011;2086;51.050;6.982;2022-08-14T06:57:09;4.33;;;4.00;;
4144;SDS011;2086;51.050;6.982;2022-08-14T06:59:35;3.80;;;3.60;;
4144;SDS011;2086;51.050;6.982;2022-08-14T07:02:00;4.87;;;4.07;;
4144;SDS011;2086;51.050;6.982;2022-08-14T07:04:44;5.20;;;4.00;;
4144;SDS011;2086;51.050;6.982;2022-08-14T07:07:35;4.13;;;3.60;;
4144;SDS011;2086;51.050;6.982;2022-08-14T07:10:01;4.00;;;3.80;;
4144;SDS011;2086;51.050;6.982;2022-08-14T07:12:29;4.20;;;4.00;;
4144;SDS011;2086;51.050;6.982;2022-08-14T07:14:54;3.40;;;3.10;;
4144;SDS011;2086;51.050;6.982;2022-08-14T07:17:19;3.90;;;3.70;;
4144;SDS011;2086;51.050;6.982;2022-08-14T07:19:44;3.37;;;3.23;;
4144;SDS011;2086;51.050;6.982;2022-08-14T07:22:09;3.20;;;3.10;;
4144;SDS011;2086;51.050;6.982;2022-08-14T07:24:35;4.43;;;3.83;;
4144;SDS011;2086;51.050;6.982;2022-08-14T07:27:00;3.53;;;3.33;;
4144;SDS011;2086;51.050;6.982;2022-08-14T07:29:25;3.70;;;3.50;;
4144;SDS011;2086;51.050;6.982;2022-08-14T07:31:51;4.17;;;3.80;;
4144;SDS011;2086;51.050;6.982;2022-08-14T07:34:16;3.70;;;3.50;;
4144;SDS011;2086;51.050;6.982;2022-08-14T07:36:41;4.53;;;4.13;;
4144;SDS011;2086;51.050;6.982;2022-08-14T07:39:06;4.77;;;4.37;;
4144;SDS011;2086;51.050;6.982;2022-08-14T07:41:32;3.47;;;3.27;;
4144;SDS011;2086;51.050;6.982;2022-08-14T07:43:57;4.17;;;3.77;;
4144;SDS011;2086;51.050;6.982;2022-08-14T07:46:22;5.40;;;3.10;;
4144;SDS011;2086;51.050;6.982;2022-08-14T07:48:48;5.33;;;3.57;;
4144;SDS011;2086;51.050;6.982;2022-08-14T07:51:13;3.03;;;2.83;;
4144;SDS011;2086;51.050;6.982;2022-08-14T07:53:38;3.30;;;3.10;;
4144;SDS011;2086;51.050;6.982;2022-08-14T07:56:04;3.60;;;3.50;;
4144;SDS011;2086;51.050;6.982;2022-08-14T07:58:29;3.77;;;3.60;;
4144;SDS011;2086;51.050;6.982;2022-08-14T08:00:55;3.90;;;3.70;;
4144;SDS011;2086;51.050;6.982;2022-08-14T08:03:21;3.67;;;3.47;;
4144;SDS011;2086;51.050;6.982;2022-08-14T08:05:47;3.40;;;3.27;;
4144;SDS011;2086;51.050;6.982;2022-08-14T08:08:12;3.53;;;3.43;;
4144;SDS011;2086;51.050;6.982;2022-08-14T08:10:40;3.87;;;3.53;;
4144;SDS011;2086;51.050;6.982;2022-08-14T08:13:10;2.87;;;2.77;;
4144;SDS011;2086;51.050;6.982;2022-08-14T08:15:40;3.30;;;3.10;;
4144;SDS011;2086;51.050;6.982;2022-08-14T08:18:06;4.10;;;3.80;;
4144;SDS011;2086;51.050;6.982;2022-08-14T08:20:33;2.90;;;2.67;;
4144;SDS011;2086;51.050;6.982;2022-08-14T08:22:58;2.73;;;2.63;;
4144;SDS011;2086;51.050;6.982;2022-08-14T08:25:25;3.00;;;2.83;;
4144;SDS011;2086;51.050;6.982;2022-08-14T08:30:25;3.47;;;3.33;;
4144;SDS011;2086;51.050;6.982;2022-08-14T08:32:52;3.00;;;2.90;;
4144;SDS011;2086;51.050;6.982;2022-08-14T08:35:18;2.90;;;2.80;;
4144;SDS011;2086;51.050;6.982;2022-08-14T08:37:45;3.33;;;2.70;;
4144;SDS011;2086;51.050;6.982;2022-08-14T08:40:10;3.77;;;3.10;;
4144;SDS011;2086;51.050;6.982;2022-08-14T08:42:35;3.30;;;3.00;;
4144;SDS011;2086;51.050;6.982;2022-08-14T08:45:01;2.93;;;2.83;;
4144;SDS011;2086;51.050;6.982;2022-08-14T08:47:36;3.10;;;2.90;;
4144;SDS011;2086;51.050;6.982;2022-08-14T08:50:01;2.73;;;2.63;;
4144;SDS011;2086;51.050;6.982;2022-08-14T08:52:27;2.80;;;2.60;;
4144;SDS011;2086;51.050;6.982;2022-08-14T08:54:55;3.27;;;3.10;;
4144;SDS011;2086;51.050;6.982;2022-08-14T08:57:20;2.33;;;2.23;;
4144;SDS011;2086;51.050;6.982;2022-08-14T08:59:45;2.43;;;2.33;;
4144;SDS011;2086;51.050;6.982;2022-08-14T09:02:11;2.60;;;2.40;;
4144;SDS011;2086;51.050;6.982;2022-08-14T09:04:40;2.40;;;2.30;;
4144;SDS011;2086;51.050;6.982;2022-08-14T09:07:06;2.37;;;2.27;;
4144;SDS011;2086;51.050;6.982;2022-08-14T09:09:31;2.57;;;2.47;;
4144;SDS011;2086;51.050;6.982;2022-08-14T09:11:58;2.40;;;2.30;;
4144;SDS011;2086;51.050;6.982;2022-08-14T09:14:24;1.90;;;1.80;;
4144;SDS011;2086;51.050;6.982;2022-08-14T09:16:50;2.60;;;2.50;;
4144;SDS011;2086;51.050;6.982;2022-08-14T09:19:15;2.10;;;2.00;;
4144;SDS011;2086;51.050;6.982;2022-08-14T09:21:41;3.00;;;1.90;;
4144;SDS011;2086;51.050;6.982;2022-08-14T09:24:07;2.27;;;2.20;;
4144;SDS011;2086;51.050;6.982;2022-08-14T09:26:33;2.73;;;2.53;;
4144;SDS011;2086;51.050;6.982;2022-08-14T09:28:59;2.47;;;2.30;;
4144;SDS011;2086;51.050;6.982;2022-08-14T09:31:24;2.50;;;2.40;;
4144;SDS011;2086;51.050;6.982;2022-08-14T09:42:07;2.13;;;2.03;;
4144;SDS011;2086;51.050;6.982;2022-08-14T09:47:01;2.38;;;2.28;;
4144;SDS011;2086;51.050;6.982;2022-08-14T09:49:38;2.13;;;2.03;;
4144;SDS011;2086;51.050;6.982;2022-08-14T09:52:08;2.05;;;1.95;;
4144;SDS011;2086;51.050;6.982;2022-08-14T09:57:07;1.42;;;1.42;;
4144;SDS011;2086;51.050;6.982;2022-08-14T09:59:41;1.63;;;1.63;;
4144;SDS011;2086;51.050;6.982;2022-08-14T10:05:04;1.63;;;1.58;;
4144;SDS011;2086;51.050;6.982;2022-08-14T10:07:34;1.90;;;1.80;;
4144;SDS011;2086;51.050;6.982;2022-08-14T10:10:00;1.27;;;1.27;;
4144;SDS011;2086;51.050;6.982;2022-08-14T10:12:40;1.67;;;1.50;;
4144;SDS011;2086;51.050;6.982;2022-08-14T10:15:13;1.70;;;1.70;;
4144;SDS011;2086;51.050;6.982;2022-08-14T10:17:38;2.17;;;1.85;;
4144;SDS011;2086;51.050;6.982;2022-08-14T10:20:05;1.30;;;1.30;;
4144;SDS011;2086;51.050;6.982;2022-08-14T10:22:32;1.65;;;1.48;;
4144;SDS011;2086;51.050;6.982;2022-08-14T10:24:57;1.60;;;1.50;;
4144;SDS011;2086;51.050;6.982;2022-08-14T10:27:24;1.45;;;1.45;;
4144;SDS011;2086;51.050;6.982;2022-08-14T10:29:50;1.63;;;1.63;;
4144;SDS011;2086;51.050;6.982;2022-08-14T10:32:15;1.10;;;1.10;;
4144;SDS011;2086;51.050;6.982;2022-08-14T10:34:41;1.00;;;1.00;;
4144;SDS011;2086;51.050;6.982;2022-08-14T10:37:10;1.00;;;1.00;;
4144;SDS011;2086;51.050;6.982;2022-08-14T10:39:36;1.00;;;1.00;;
4144;SDS011;2086;51.050;6.982;2022-08-14T10:42:05;1.30;;;1.30;;
4144;SDS011;2086;51.050;6.982;2022-08-14T10:44:32;1.50;;;1.40;;
4144;SDS011;2086;51.050;6.982;2022-08-14T10:46:57;1.10;;;1.10;;
4144;SDS011;2086;51.050;6.982;2022-08-14T10:49:27;1.30;;;1.30;;
4144;SDS011;2086;51.050;6.982;2022-08-14T10:54:45;0.90;;;0.90;;
4144;SDS011;2086;51.050;6.982;2022-08-14T10:57:25;0.90;;;0.90;;
4144;SDS011;2086;51.050;6.982;2022-08-14T10:59:52;0.90;;;0.90;;
4144;SDS011;2086;51.050;6.982;2022-08-14T11:02:29;0.82;;;0.82;;
4144;SDS011;2086;51.050;6.982;2022-08-14T11:04:59;1.23;;;1.00;;
4144;SDS011;2086;51.050;6.982;2022-08-14T11:07:25;1.10;;;1.10;;
4144;SDS011;2086;51.050;6.982;2022-08-14T11:09:54;1.00;;;1.00;;
4144;SDS011;2086;51.050;6.982;2022-08-14T11:12:19;1.13;;;1.13;;
4144;SDS011;2086;51.050;6.982;2022-08-14T11:14:49;1.33;;;1.33;;
4144;SDS011;2086;51.050;6.982;2022-08-14T11:17:14;1.40;;;1.40;;
4144;SDS011;2086;51.050;6.982;2022-08-14T11:19:40;1.50;;;1.50;;
4144;SDS011;2086;51.050;6.982;2022-08-14T11:22:05;1.20;;;1.20;;
4144;SDS011;2086;51.050;6.982;2022-08-14T11:24:31;1.48;;;1.48;;
4144;SDS011;2086;51.050;6.982;2022-08-14T11:26:57;1.40;;;1.40;;
4144;SDS011;2086;51.050;6.982;2022-08-14T11:29:23;1.23;;;1.23;;
4144;SDS011;2086;51.050;6.982;2022-08-14T11:31:49;1.40;;;1.40;;
4144;SDS011;2086;51.050;6.982;2022-08-14T11:34:14;1.50;;;1.50;;
4144;SDS011;2086;51.050;6.982;2022-08-14T11:36:40;1.55;;;1.55;;
4144;SDS011;2086;51.050;6.982;2022-08-14T11:39:06;1.25;;;1.25;;
4144;SDS011;2086;51.050;6.982;2022-08-14T11:41:33;1.48;;;1.48;;
4144;SDS011;2086;51.050;6.982;2022-08-14T11:43:58;1.10;;;1.10;;
4144;SDS011;2086;51.050;6.982;2022-08-14T11:46:23;1.45;;;1.45;;
4144;SDS011;2086;51.050;6.982;2022-08-14T11:48:52;1.10;;;1.10;;
4144;SDS011;2086;51.050;6.982;2022-08-14T11:51:18;1.70;;;1.02;;
4144;SDS011;2086;51.050;6.982;2022-08-14T11:53:49;1.30;;;1.30;;
4144;SDS011;2086;51.050;6.982;2022-08-14T11:56:15;2.25;;;0.90;;
4144;SDS011;2086;51.050;6.982;2022-08-14T11:58:40;1.30;;;1.30;;
4144;SDS011;2086;51.050;6.982;2022-08-14T12:01:06;1.95;;;1.52;;
4144;SDS011;2086;51.050;6.982;2022-08-14T12:06:07;1.50;;;1.40;;
4144;SDS011;2086;51.050;6.982;2022-08-14T12:08:33;1.42;;;1.42;;
4144;SDS011;2086;51.050;6.982;2022-08-14T12:10:59;1.38;;;1.38;;
4144;SDS011;2086;51.050;6.982;2022-08-14T12:13:25;1.17;;;1.17;;
4144;SDS011;2086;51.050;6.982;2022-08-14T12:15:57;1.60;;;1.60;;
4144;SDS011;2086;51.050;6.982;2022-08-14T12:18:29;1.40;;;1.40;;
4144;SDS011;2086;51.050;6.982;2022-08-14T12:20:56;1.98;;;1.80;;
4144;SDS011;2086;51.050;6.982;2022-08-14T12:23:22;1.27;;;1.25;;
4144;SDS011;2086;51.050;6.982;2022-08-14T12:25:48;1.30;;;1.30;;
4144;SDS011;2086;51.050;6.982;2022-08-14T12:28:14;2.35;;;1.02;;
4144;SDS011;2086;51.050;6.982;2022-08-14T12:30:40;1.35;;;1.30;;
4144;SDS011;2086;51.050;6.982;2022-08-14T12:33:18;1.30;;;1.30;;
4144;SDS011;2086;51.050;6.982;2022-08-14T12:35:49;2.45;;;1.30;;
4144;SDS011;2086;51.050;6.982;2022-08-14T12:38:15;0.98;;;0.98;;
4144;SDS011;2086;51.050;6.982;2022-08-14T12:40:47;1.13;;;1.13;;
4144;SDS011;2086;51.050;6.982;2022-08-14T12:43:13;0.80;;;0.80;;
4144;SDS011;2086;51.050;6.982;2022-08-14T12:45:44;0.85;;;0.85;;
4144;SDS011;2086;51.050;6.982;2022-08-14T12:48:11;1.25;;;1.00;;
4144;SDS011;2086;51.050;6.982;2022-08-14T12:50:38;1.05;;;1.05;;
4144;SDS011;2086;51.050;6.982;2022-08-14T12:53:03;1.17;;;1.17;;
4144;SDS011;2086;51.050;6.982;2022-08-14T12:55:29;0.82;;;0.73;;
4144;SDS011;2086;51.050;6.982;2022-08-14T12:57:56;1.13;;;1.13;;
4144;SDS011;2086;51.050;6.982;2022-08-14T13:00:23;1.10;;;1.10;;
4144;SDS011;2086;51.050;6.982;2022-08-14T13:02:51;0.95;;;0.95;;
4144;SDS011;2086;51.050;6.982;2022-08-14T13:05:16;1.02;;;1.02;;
4144;SDS011;2086;51.050;6.982;2022-08-14T13:07:46;0.73;;;0.73;;
4144;SDS011;2086;51.050;6.982;2022-08-14T13:10:11;0.80;;;0.80;;
4144;SDS011;2086;51.050;6.982;2022-08-14T13:12:38;1.30;;;1.20;;
4144;SDS011;2086;51.050;6.982;2022-08-14T13:15:08;1.10;;;1.00;;
4144;SDS011;2086;51.050;6.982;2022-08-14T13:17:41;1.30;;;1.20;;
4144;SDS011;2086;51.050;6.982;2022-08-14T13:20:07;0.85;;;0.85;;
4144;SDS011;2086;51.050;6.982;2022-08-14T13:22:35;1.45;;;1.45;;
4144;SDS011;2086;51.050;6.982;2022-08-14T13:25:01;1.30;;;1.30;;
4144;SDS011;2086;51.050;6.982;2022-08-14T13:27:26;1.20;;;1.20;;
4144;SDS011;2086;51.050;6.982;2022-08-14T13:29:54;1.40;;;1.40;;
4144;SDS011;2086;51.050;6.982;2022-08-14T13:32:22;1.30;;;1.30;;
4144;SDS011;2086;51.050;6.982;2022-08-14T13:34:48;1.47;;;1.37;;
4144;SDS011;2086;51.050;6.982;2022-08-14T13:37:14;1.20;;;1.20;;
4144;SDS011;2086;51.050;6.982;2022-08-14T13:39:39;1.47;;;1.37;;
4144;SDS011;2086;51.050;6.982;2022-08-14T13:42:10;1.33;;;1.33;;
4144;SDS011;2086;51.050;6.982;2022-08-14T13:44:38;1.60;;;1.53;;
4144;SDS011;2086;51.050;6.982;2022-08-14T13:47:04;1.20;;;1.20;;
4144;SDS011;2086;51.050;6.982;2022-08-14T13:49:31;2.03;;;1.93;;
4144;SDS011;2086;51.050;6.982;2022-08-14T13:51:56;1.30;;;1.30;;
4144;SDS011;2086;51.050;6.982;2022-08-14T13:54:22;1.67;;;1.50;;
4144;SDS011;2086;51.050;6.982;2022-08-14T13:56:49;1.57;;;1.50;;
4144;SDS011;2086;51.050;6.982;2022-08-14T13:59:15;2.00;;;1.30;;
4144;SDS011;2086;51.050;6.982;2022-08-14T14:01:40;1.30;;;1.30;;
4144;SDS011;2086;51.050;6.982;2022-08-14T14:04:13;1.37;;;1.37;;
4144;SDS011;2086;51.050;6.982;2022-08-14T14:06:40;1.93;;;1.83;;
4144;SDS011;2086;51.050;6.982;2022-08-14T14:09:08;1.80;;;1.63;;
4144;SDS011;2086;51.050;6.982;2022-08-14T14:11:34;1.43;;;1.43;;
4144;SDS011;2086;51.050;6.982;2022-08-14T14:13:59;1.90;;;1.80;;
4144;SDS011;2086;51.050;6.982;2022-08-14T14:16:25;1.63;;;1.63;;
4144;SDS011;2086;51.050;6.982;2022-08-14T14:18:51;3.17;;;1.20;;
4144;SDS011;2086;51.050;6.982;2022-08-14T14:21:20;1.50;;;1.40;;
4144;SDS011;2086;51.050;6.982;2022-08-14T14:23:45;1.43;;;1.40;;
4144;SDS011;2086;51.050;6.982;2022-08-14T14:26:15;1.80;;;1.70;;
4144;SDS011;2086;51.050;6.982;2022-08-14T14:28:41;1.40;;;1.40;;
4144;SDS011;2086;51.050;6.982;2022-08-14T14:31:07;2.10;;;1.50;;
4144;SDS011;2086;51.050;6.982;2022-08-14T14:33:33;1.50;;;1.50;;
4144;SDS011;2086;51.050;6.982;2022-08-14T14:35:58;1.60;;;1.50;;
4144;SDS011;2086;51.050;6.982;2022-08-14T14:38:25;1.60;;;1.50;;
4144;SDS011;2086;51.050;6.982;2022-08-14T14:40:52;1.10;;;1.10;;
4144;SDS011;2086;51.050;6.982;2022-08-14T14:43:19;1.47;;;1.37;;
4144;SDS011;2086;51.050;6.982;2022-08-14T14:45:44;1.07;;;1.07;;
4144;SDS011;2086;51.050;6.982;2022-08-14T14:48:12;1.97;;;1.87;;
4144;SDS011;2086;51.050;6.982;2022-08-14T14:50:38;1.23;;;1.23;;
4144;SDS011;2086;51.050;6.982;2022-08-14T14:53:04;1.20;;;1.20;;
4144;SDS011;2086;51.050;6.982;2022-08-14T14:55:29;1.47;;;1.47;;
4144;SDS011;2086;51.050;6.982;2022-08-14T14:57:55;1.10;;;1.00;;
4144;SDS011;2086;51.050;6.982;2022-08-14T15:00:21;1.43;;;1.33;;
4144;SDS011;2086;51.050;6.982;2022-08-14T15:02:51;1.00;;;1.00;;
4144;SDS011;2086;51.050;6.982;2022-08-14T15:05:16;1.80;;;1.70;;
4144;SDS011;2086;51.050;6.982;2022-08-14T15:07:42;1.57;;;1.47;;
4144;SDS011;2086;51.050;6.982;2022-08-14T15:10:09;1.57;;;1.47;;
4144;SDS011;2086;51.050;6.982;2022-08-14T15:12:35;1.23;;;1.23;;
4144;SDS011;2086;51.050;6.982;2022-08-14T15:15:00;1.80;;;1.70;;
4144;SDS011;2086;51.050;6.982;2022-08-14T15:17:26;1.60;;;1.60;;
4144;SDS011;2086;51.050;6.982;2022-08-14T15:19:57;1.20;;;1.20;;
4144;SDS011;2086;51.050;6.982;2022-08-14T15:22:22;1.63;;;1.37;;
4144;SDS011;2086;51.050;6.982;2022-08-14T15:24:48;1.30;;;1.20;;
4144;SDS011;2086;51.050;6.982;2022-08-14T15:27:14;1.20;;;1.20;;
4144;SDS011;2086;51.050;6.982;2022-08-14T15:29:39;1.50;;;1.40;;
4144;SDS011;2086;51.050;6.982;2022-08-14T15:32:06;1.10;;;1.10;;
4144;SDS011;2086;51.050;6.982;2022-08-14T15:34:31;1.60;;;1.50;;
4144;SDS011;2086;51.050;6.982;2022-08-14T15:36:56;1.50;;;1.50;;
4144;SDS011;2086;51.050;6.982;2022-08-14T15:39:22;1.50;;;1.40;;
4144;SDS011;2086;51.050;6.982;2022-08-14T15:41:47;1.90;;;1.80;;